Time;durP1;ratioP1;P1;durP2;ratioP2;P2;SDS_P1;SDS_P2;PMS_P1;PMS_P2;Temp;Humidity;BMP_temperature;BMP_pressure;BME280_temperature;BME280_humidity;BME280_pressure;Samples;Min_cycle;Max_cycle;Signal;HPM_P1;HPM_P2
2023/06/23 00:00:49;;;;;;;7.82;4.93;;;21.10;99.90;;;;;;5091010;28;20020;-58
2023/06/23 00:03:15;;;;;;;7.95;5.15;;;21.10;99.90;;;;;;5090740;28;20031;-58
2023/06/23 00:05:40;;;;;;;10.15;6.18;;;21.00;99.90;;;;;;5091034;28;20031;-58
2023/06/23 00:08:06;;;;;;;9.32;7.00;;;20.80;99.90;;;;;;5090966;28;20028;-58
2023/06/23 00:10:32;;;;;;;9.57;6.95;;;20.50;99.90;;;;;;5091131;28;20103;-58
2023/06/23 00:12:57;;;;;;;10.02;7.00;;;20.30;99.90;;;;;;5091260;28;20031;-58
2023/06/23 00:15:23;;;;;;;9.18;7.22;;;20.30;99.90;;;;;;5090810;28;20024;-58
2023/06/23 00:17:50;;;;;;;9.15;7.03;;;20.20;99.90;;;;;;5090489;28;20035;-58
2023/06/23 00:20:16;;;;;;;7.97;6.72;;;20.00;99.90;;;;;;5090933;28;20028;-58
2023/06/23 00:22:43;;;;;;;8.55;7.10;;;19.90;99.90;;;;;;5090809;28;20055;-58
2023/06/23 00:25:10;;;;;;;9.13;7.82;;;19.90;99.90;;;;;;5090905;28;20020;-58
2023/06/23 00:27:37;;;;;;;8.35;7.47;;;19.70;99.90;;;;;;5091182;28;20032;-59
2023/06/23 00:30:04;;;;;;;9.48;7.90;;;19.60;99.90;;;;;;5090762;28;20020;-58
2023/06/23 00:32:29;;;;;;;9.98;7.93;;;19.50;99.90;;;;;;5090714;28;20028;-57
2023/06/23 00:34:55;;;;;;;8.70;7.88;;;19.40;99.90;;;;;;5090740;28;20043;-58
2023/06/23 00:37:21;;;;;;;9.50;8.38;;;19.40;99.90;;;;;;5090624;28;20142;-58
2023/06/23 00:39:46;;;;;;;10.63;8.35;;;19.20;99.90;;;;;;5090903;28;20024;-58
2023/06/23 00:42:12;;;;;;;9.80;8.00;;;19.30;99.90;;;;;;5090807;28;20032;-58
2023/06/23 00:44:37;;;;;;;8.90;8.00;;;19.10;99.90;;;;;;5090969;28;20558;-58
2023/06/23 00:47:04;;;;;;;9.55;8.30;;;19.20;99.90;;;;;;5090871;28;20485;-58
2023/06/23 00:49:30;;;;;;;10.88;8.43;;;19.10;99.90;;;;;;5092899;28;20118;-58
2023/06/23 00:52:01;;;;;;;11.93;8.48;;;19.00;99.90;;;;;;5093099;28;20039;-58
2023/06/23 00:54:28;;;;;;;9.50;8.45;;;19.00;99.90;;;;;;5094309;28;20039;-58
2023/06/23 00:56:58;;;;;;;9.60;8.60;;;19.00;99.90;;;;;;5092981;28;20436;-58
2023/06/23 00:59:28;;;;;;;9.35;7.78;;;18.90;99.90;;;;;;5094396;28;20039;-57
2023/06/23 01:01:59;;;;;;;9.07;8.25;;;19.00;99.90;;;;;;5093795;28;20550;-57
2023/06/23 01:04:29;;;;;;;10.25;8.15;;;19.10;99.90;;;;;;5094140;28;20471;-58
2023/06/23 01:07:21;;;;;;;9.40;8.57;;;19.10;99.90;;;;;;5094038;28;20024;-58
2023/06/23 01:10:07;;;;;;;9.20;8.30;;;19.10;99.90;;;;;;5094267;28;20107;-58
2023/06/23 01:12:54;;;;;;;11.07;8.55;;;19.10;99.90;;;;;;5093848;28;20020;-58
2023/06/23 01:15:32;;;;;;;10.27;8.20;;;19.10;99.90;;;;;;5093871;28;20040;-58
2023/06/23 01:18:06;;;;;;;9.68;8.63;;;19.20;99.90;;;;;;5093445;28;20028;-58
2023/06/23 01:20:36;;;;;;;10.77;9.18;;;19.10;99.90;;;;;;5093819;28;20046;-57
2023/06/23 01:23:14;;;;;;;9.52;8.63;;;19.10;99.90;;;;;;5093822;28;20048;-57
2023/06/23 01:26:01;;;;;;;9.65;8.75;;;19.10;99.90;;;;;;5093934;28;20039;-58
2023/06/23 01:28:41;;;;;;;10.40;8.88;;;19.00;99.90;;;;;;5093920;28;20032;-58
2023/06/23 01:31:13;;;;;;;10.40;9.32;;;18.90;99.90;;;;;;5093419;28;20031;-58
2023/06/23 01:33:44;;;;;;;11.60;9.05;;;18.80;99.90;;;;;;5093439;28;20500;-58
2023/06/23 01:36:14;;;;;;;10.13;9.13;;;18.70;99.90;;;;;;5093500;28;20109;-58
2023/06/23 01:38:46;;;;;;;11.98;9.07;;;18.70;99.90;;;;;;5093326;28;20028;-58
2023/06/23 01:41:19;;;;;;;10.07;9.18;;;18.60;99.90;;;;;;5093317;28;20073;-58
2023/06/23 01:43:48;;;;;;;11.18;9.45;;;18.50;99.90;;;;;;5093045;28;20103;-59
2023/06/23 01:46:25;;;;;;;11.40;9.48;;;18.50;99.90;;;;;;5093708;28;20032;-58
2023/06/23 01:48:57;;;;;;;12.70;9.70;;;18.40;99.90;;;;;;5093262;28;20028;-57
2023/06/23 01:51:26;;;;;;;10.40;9.35;;;18.40;99.90;;;;;;5093195;28;20035;-57
2023/06/23 01:53:54;;;;;;;11.60;9.48;;;18.40;99.90;;;;;;5093467;28;20654;-57
2023/06/23 01:56:21;;;;;;;10.57;9.60;;;18.30;99.90;;;;;;5093299;28;20058;-58
2023/06/23 01:58:49;;;;;;;10.52;9.40;;;18.20;99.90;;;;;;5092436;28;20039;-58
2023/06/23 02:01:15;;;;;;;10.45;9.25;;;18.20;99.90;;;;;;5092531;28;20020;-58
2023/06/23 02:03:41;;;;;;;11.07;9.88;;;18.10;99.90;;;;;;5092969;28;20562;-58
2023/06/23 02:06:10;;;;;;;11.63;9.15;;;18.10;99.90;;;;;;5093225;28;20032;-57
2023/06/23 02:08:37;;;;;;;10.10;9.13;;;18.10;99.90;;;;;;5092768;28;20028;-58
2023/06/23 02:11:04;;;;;;;9.98;8.93;;;18.10;99.90;;;;;;5092999;28;20024;-57
2023/06/23 02:13:31;;;;;;;9.38;8.45;;;18.10;99.90;;;;;;5092162;28;20032;-58
2023/06/23 02:15:58;;;;;;;10.25;9.20;;;18.10;99.90;;;;;;5092522;28;20122;-58
2023/06/23 02:18:25;;;;;;;10.18;8.90;;;18.20;99.90;;;;;;5092568;28;20023;-57
2023/06/23 02:20:53;;;;;;;11.15;9.38;;;18.30;99.90;;;;;;5093083;28;20056;-58
2023/06/23 02:23:19;;;;;;;11.25;10.02;;;18.30;99.90;;;;;;5092657;28;20048;-57
2023/06/23 02:25:46;;;;;;;11.02;9.88;;;18.30;99.90;;;;;;5092539;28;20039;-57
2023/06/23 02:28:13;;;;;;;11.27;10.02;;;18.30;99.90;;;;;;5092143;28;20028;-58
2023/06/23 02:30:39;;;;;;;12.15;9.95;;;18.30;99.90;;;;;;5092501;28;20020;-58
2023/06/23 02:33:05;;;;;;;10.65;9.60;;;18.30;99.90;;;;;;5092716;28;20159;-57
2023/06/23 02:35:33;;;;;;;11.85;10.40;;;18.30;99.90;;;;;;5092245;28;20036;-57
2023/06/23 02:38:07;;;;;;;10.23;9.27;;;18.40;99.90;;;;;;5092330;28;20077;-58
2023/06/23 02:40:36;;;;;;;12.38;10.10;;;18.30;99.90;;;;;;5092588;28;20032;-58
2023/06/23 02:43:21;;;;;;;10.32;9.32;;;18.20;99.90;;;;;;5092304;28;20043;-58
2023/06/23 02:45:53;;;;;;;10.75;9.20;;;18.10;99.90;;;;;;5092145;28;20078;-58
2023/06/23 02:48:24;;;;;;;10.15;9.15;;;18.00;99.90;;;;;;5090756;28;20507;-58
2023/06/23 02:50:54;;;;;;;11.30;10.05;;;17.90;99.90;;;;;;5092152;28;20153;-58
2023/06/23 02:53:24;;;;;;;11.68;10.63;;;17.80;99.90;;;;;;5092006;28;20021;-58
2023/06/23 02:56:01;;;;;;;10.65;9.65;;;17.80;99.90;;;;;;5091557;28;20394;-58
2023/06/23 02:58:30;;;;;;;10.50;9.45;;;17.70;99.90;;;;;;5092156;28;20035;-58
2023/06/23 03:00:57;;;;;;;9.90;8.95;;;17.80;99.90;;;;;;5090531;28;20032;-58
2023/06/23 03:03:23;;;;;;;11.77;10.23;;;17.70;99.90;;;;;;5090482;28;20032;-58
2023/06/23 03:05:49;;;;;;;9.77;8.88;;;17.60;99.90;;;;;;5091624;28;20161;-58
2023/06/23 03:08:15;;;;;;;9.93;9.02;;;17.50;99.90;;;;;;5092081;28;20557;-58
2023/06/23 03:10:41;;;;;;;10.10;9.13;;;17.50;99.90;;;;;;5091491;28;20195;-58
2023/06/23 03:13:08;;;;;;;8.80;8.05;;;17.60;99.90;;;;;;5091119;28;20059;-58
2023/06/23 03:15:36;;;;;;;10.13;9.07;;;17.50;99.90;;;;;;5091680;28;20102;-58
2023/06/23 03:18:15;;;;;;;10.68;9.18;;;17.50;99.90;;;;;;5091734;28;20019;-57
2023/06/23 03:20:47;;;;;;;9.80;9.00;;;17.40;99.90;;;;;;5091813;28;20494;-58
2023/06/23 03:23:15;;;;;;;10.63;9.20;;;17.40;99.90;;;;;;5091641;28;20036;-57
2023/06/23 03:25:46;;;;;;;9.95;8.95;;;17.40;99.90;;;;;;5091259;28;20043;-58
2023/06/23 03:28:17;;;;;;;10.57;8.30;;;17.50;99.90;;;;;;5092027;28;20032;-58
2023/06/23 03:30:44;;;;;;;9.93;8.40;;;17.60;99.90;;;;;;5091800;28;20051;-58
2023/06/23 03:33:34;;;;;;;10.00;8.30;;;17.60;99.90;;;;;;5091477;28;20028;-58
2023/06/23 03:36:07;;;;;;;8.82;7.95;;;17.60;99.90;;;;;;5083919;28;20036;-57
2023/06/23 03:38:37;;;;;;;8.27;7.53;;;17.60;99.90;;;;;;5091583;28;20420;-56
2023/06/23 03:41:09;;;;;;;8.80;7.88;;;17.70;99.90;;;;;;5091067;28;20047;-56
2023/06/23 03:43:56;;;;;;;9.82;8.23;;;17.80;99.90;;;;;;5091058;28;20051;-58
2023/06/23 03:46:27;;;;;;;9.20;7.93;;;17.70;99.90;;;;;;5091269;28;20028;-58
2023/06/23 03:48:58;;;;;;;8.85;7.95;;;17.70;99.90;;;;;;5091130;28;20032;-58
2023/06/23 03:51:25;;;;;;;8.60;7.75;;;17.60;99.90;;;;;;5091194;28;20016;-58
2023/06/23 03:53:53;;;;;;;8.63;7.82;;;17.60;99.90;;;;;;5090708;28;20526;-58
2023/06/23 03:56:20;;;;;;;8.40;7.65;;;17.60;99.90;;;;;;5091085;28;20042;-58
2023/06/23 03:58:48;;;;;;;8.65;7.85;;;17.50;99.90;;;;;;5091231;28;20028;-58
2023/06/23 04:01:16;;;;;;;9.30;8.35;;;17.40;99.90;;;;;;5091262;28;20054;-58
2023/06/23 04:03:43;;;;;;;9.73;8.23;;;17.30;99.90;;;;;;5091253;28;20020;-57
2023/06/23 04:06:11;;;;;;;10.20;8.27;;;17.30;99.90;;;;;;5090992;28;20024;-58
2023/06/23 04:08:38;;;;;;;9.00;8.10;;;17.20;99.90;;;;;;5090864;28;20502;-57
2023/06/23 04:11:06;;;;;;;9.40;7.68;;;17.20;99.90;;;;;;5091418;28;20107;-57
2023/06/23 04:13:35;;;;;;;9.65;8.25;;;17.00;99.90;;;;;;5091090;28;20035;-58
2023/06/23 04:16:02;;;;;;;9.25;8.35;;;17.00;99.90;;;;;;5091128;28;20109;-59
2023/06/23 04:18:31;;;;;;;9.50;8.50;;;16.90;99.90;;;;;;5091170;28;20569;-58
2023/06/23 04:20:57;;;;;;;10.00;8.15;;;16.90;99.90;;;;;;5091062;28;20020;-58
2023/06/23 04:23:25;;;;;;;9.00;8.10;;;16.80;99.90;;;;;;5092603;28;20522;-58
2023/06/23 04:25:51;;;;;;;9.57;8.15;;;16.80;99.90;;;;;;5094862;28;20485;-57
2023/06/23 04:28:22;;;;;;;8.73;7.82;;;16.90;99.90;;;;;;5094865;28;20055;-58
2023/06/23 04:30:48;;;;;;;9.88;8.38;;;16.90;99.90;;;;;;5094758;28;20028;-57
2023/06/23 04:33:14;;;;;;;9.68;8.30;;;16.80;99.90;;;;;;5094636;28;20024;-58
2023/06/23 04:35:40;;;;;;;9.10;8.30;;;16.80;99.90;;;;;;5094911;28;20028;-59
2023/06/23 04:38:12;;;;;;;8.57;7.75;;;16.70;99.90;;;;;;5092996;28;20036;-57
2023/06/23 04:40:47;;;;;;;9.10;7.82;;;16.80;99.90;;;;;;5094486;28;20024;-57
2023/06/23 04:43:19;;;;;;;9.43;8.50;;;16.90;99.90;;;;;;5094454;28;20093;-57
2023/06/23 04:45:57;;;;;;;12.48;11.27;;;17.00;99.90;;;;;;5094467;28;20398;-57
2023/06/23 04:48:26;;;;;;;10.77;9.55;;;17.10;99.90;;;;;;5094500;28;20391;-58
2023/06/23 04:50:56;;;;;;;9.38;8.02;;;17.20;99.90;;;;;;5094239;28;20444;-57
2023/06/23 04:53:27;;;;;;;8.75;7.88;;;17.30;99.90;;;;;;5093795;28;20474;-58
2023/06/23 04:56:00;;;;;;;8.60;7.72;;;17.30;99.90;;;;;;5094090;28;20032;-58
2023/06/23 04:58:29;;;;;;;8.50;7.80;;;17.20;99.90;;;;;;5094591;28;20291;-58
2023/06/23 05:00:57;;;;;;;9.02;7.07;;;17.20;99.90;;;;;;5094413;28;20473;-58
2023/06/23 05:03:23;;;;;;;7.85;7.13;;;17.20;99.90;;;;;;5094138;28;20106;-58
2023/06/23 05:05:55;;;;;;;7.07;6.38;;;17.40;99.90;;;;;;5092983;28;20024;-58
2023/06/23 05:08:25;;;;;;;7.47;6.50;;;17.50;99.90;;;;;;5093523;28;20028;-59
2023/06/23 05:10:52;;;;;;;7.60;6.53;;;17.40;99.90;;;;;;5093890;28;20032;-58
2023/06/23 05:13:20;;;;;;;7.25;6.50;;;17.40;99.90;;;;;;5093724;28;20036;-58
2023/06/23 05:15:47;;;;;;;6.85;6.20;;;17.30;99.90;;;;;;5092711;28;20475;-58
2023/06/23 05:18:15;;;;;;;8.77;6.97;;;17.20;99.90;;;;;;5093858;28;20017;-58
2023/06/23 05:20:42;;;;;;;7.07;6.55;;;17.10;99.90;;;;;;5092471;28;20047;-58
2023/06/23 05:23:10;;;;;;;7.30;6.63;;;17.10;99.90;;;;;;5093555;28;20047;-58
2023/06/23 05:25:37;;;;;;;7.38;6.68;;;17.10;99.90;;;;;;5093706;28;20101;-52
2023/06/23 05:28:05;;;;;;;9.07;7.13;;;17.10;99.90;;;;;;5093663;28;20414;-58
2023/06/23 05:30:32;;;;;;;8.52;6.65;;;17.20;99.90;;;;;;5093554;28;20571;-57
2023/06/23 05:33:01;;;;;;;8.50;6.78;;;17.20;99.90;;;;;;5093679;28;20024;-58
2023/06/23 05:35:30;;;;;;;7.55;6.63;;;17.20;99.90;;;;;;5092247;28;20070;-58
2023/06/23 05:37:57;;;;;;;8.63;7.82;;;17.20;99.90;;;;;;5093459;28;20024;-58
2023/06/23 05:40:23;;;;;;;9.57;7.68;;;17.30;99.90;;;;;;5093352;28;20028;-58
2023/06/23 05:42:48;;;;;;;8.40;7.60;;;17.30;99.90;;;;;;5093526;28;20030;-59
2023/06/23 05:45:14;;;;;;;8.75;7.55;;;17.40;99.90;;;;;;5093283;28;20119;-57
2023/06/23 05:48:21;;;;;;;8.35;7.55;;;17.50;99.90;;;;;;5093069;28;20070;-57
2023/06/23 05:50:49;;;;;;;9.93;8.27;;;17.60;99.90;;;;;;5030220;28;20037;-57
2023/06/23 05:53:20;;;;;;;11.38;7.90;;;17.70;99.90;;;;;;5030509;28;20480;-57
2023/06/23 05:55:57;;;;;;;8.95;7.97;;;17.80;99.90;;;;;;5030833;28;20241;-57
2023/06/23 05:58:28;;;;;;;10.02;7.28;;;18.10;99.90;;;;;;5031173;28;20026;-58
2023/06/23 06:00:57;;;;;;;8.32;6.70;;;18.30;99.90;;;;;;5030606;28;20160;-57
2023/06/23 06:03:47;;;;;;;7.63;6.97;;;18.60;99.90;;;;;;5030562;28;20045;-57
2023/06/23 06:06:14;;;;;;;10.48;7.00;;;18.70;99.90;;;;;;5030279;28;20051;-57
2023/06/23 06:08:41;;;;;;;9.35;7.18;;;18.80;99.90;;;;;;5030460;28;20084;-57
2023/06/23 06:11:10;;;;;;;10.00;7.53;;;18.90;99.90;;;;;;5030494;28;20057;-58
2023/06/23 06:13:43;;;;;;;7.78;6.90;;;18.90;99.90;;;;;;5030347;28;20117;-57
2023/06/23 06:16:10;;;;;;;7.80;7.00;;;18.90;99.90;;;;;;5030188;28;20476;-57
2023/06/23 06:18:38;;;;;;;8.65;6.43;;;19.00;99.90;;;;;;5029882;28;20092;-58
2023/06/23 06:21:07;;;;;;;7.82;6.55;;;19.10;99.90;;;;;;5029767;28;20033;-58
2023/06/23 06:23:33;;;;;;;7.80;6.60;;;19.10;99.90;;;;;;5030146;28;20041;-58
2023/06/23 06:26:01;;;;;;;7.13;6.50;;;19.00;99.90;;;;;;5046812;28;20078;-58
2023/06/23 06:28:28;;;;;;;9.48;6.80;;;18.90;99.90;;;;;;5072313;28;20059;-58
2023/06/23 06:30:57;;;;;;;8.35;6.90;;;18.90;99.90;;;;;;5072328;28;20029;-57
2023/06/23 06:33:24;;;;;;;9.18;6.63;;;18.90;99.90;;;;;;5071548;28;20048;-57
2023/06/23 06:35:51;;;;;;;9.15;6.45;;;18.90;99.90;;;;;;5072104;28;20101;-58
2023/06/23 06:38:18;;;;;;;7.55;6.45;;;19.00;99.90;;;;;;5071940;28;20048;-57
2023/06/23 06:40:46;;;;;;;7.88;6.78;;;19.00;99.90;;;;;;5072025;28;20035;-58
2023/06/23 06:43:12;;;;;;;7.18;6.38;;;19.10;99.90;;;;;;5071803;28;20134;-57
2023/06/23 06:45:38;;;;;;;7.97;6.75;;;19.10;99.90;;;;;;5072203;28;20590;-58
2023/06/23 06:48:05;;;;;;;8.63;6.70;;;19.20;99.90;;;;;;5071343;28;20429;-58
2023/06/23 06:50:32;;;;;;;8.13;6.60;;;19.20;99.90;;;;;;5071753;28;20417;-59
2023/06/23 06:52:58;;;;;;;9.55;7.05;;;19.30;99.90;;;;;;5071803;28;20032;-58
2023/06/23 06:55:25;;;;;;;9.15;6.53;;;19.40;99.90;;;;;;5071902;28;20163;-58
2023/06/23 06:57:51;;;;;;;8.07;6.45;;;19.40;99.90;;;;;;5071693;28;20021;-58
2023/06/23 07:00:19;;;;;;;7.60;6.70;;;19.50;99.90;;;;;;5071563;28;20025;-57
2023/06/23 07:02:45;;;;;;;9.30;6.90;;;19.60;99.90;;;;;;5071097;28;20020;-57
2023/06/23 07:05:11;;;;;;;7.60;6.20;;;19.60;99.90;;;;;;5071475;28;20021;-56
2023/06/23 07:07:37;;;;;;;8.77;6.72;;;19.70;99.90;;;;;;5071362;28;20024;-55
2023/06/23 07:10:04;;;;;;;8.60;5.65;;;19.90;99.90;;;;;;5071478;28;20094;-57
2023/06/23 07:12:31;;;;;;;9.63;5.32;;;20.20;99.90;;;;;;5071538;28;20020;-57
2023/06/23 07:14:57;;;;;;;7.25;5.13;;;20.40;99.90;;;;;;5071234;28;20108;-57
2023/06/23 07:17:23;;;;;;;9.27;5.38;;;20.50;99.90;;;;;;5078730;28;20029;-58
2023/06/23 07:19:49;;;;;;;7.72;5.30;;;20.60;99.90;;;;;;5091741;28;20032;-58
2023/06/23 07:22:15;;;;;;;6.72;4.82;;;20.90;99.90;;;;;;5091594;28;20430;-57
2023/06/23 07:24:41;;;;;;;6.47;4.97;;;20.90;99.90;;;;;;5091472;28;20043;-57
2023/06/23 07:27:08;;;;;;;7.32;4.60;;;20.90;99.90;;;;;;5091368;28;20075;-57
2023/06/23 07:29:34;;;;;;;5.30;4.47;;;20.90;99.90;;;;;;5091712;28;20028;-58
2023/06/23 07:32:01;;;;;;;7.82;4.43;;;20.90;99.90;;;;;;5091196;28;20024;-57
2023/06/23 07:34:28;;;;;;;6.22;4.28;;;20.90;99.90;;;;;;5091359;28;20032;-58
2023/06/23 07:36:54;;;;;;;6.43;4.50;;;20.90;99.90;;;;;;5091526;28;20028;-57
2023/06/23 07:39:20;;;;;;;6.45;4.80;;;20.80;99.90;;;;;;5091880;28;20043;-58
2023/06/23 07:41:46;;;;;;;7.43;4.85;;;20.60;99.90;;;;;;5091565;28;20078;-58
2023/06/23 07:44:11;;;;;;;7.80;5.28;;;20.50;99.90;;;;;;5091346;28;20081;-58
2023/06/23 07:46:37;;;;;;;7.30;5.25;;;20.50;99.90;;;;;;5090876;28;20032;-58
2023/06/23 07:49:03;;;;;;;7.53;5.43;;;20.40;99.90;;;;;;5091354;28;20409;-58
2023/06/23 07:51:28;;;;;;;8.75;5.47;;;20.30;99.90;;;;;;5091580;28;20032;-57
2023/06/23 07:53:55;;;;;;;9.35;5.55;;;20.40;99.90;;;;;;5091158;28;20039;-58
2023/06/23 07:56:21;;;;;;;5.78;5.25;;;20.40;99.90;;;;;;5091112;28;20400;-58
2023/06/23 07:58:46;;;;;;;5.80;4.43;;;20.40;99.90;;;;;;5093681;28;20110;-57
2023/06/23 08:01:12;;;;;;;7.15;5.00;;;20.50;99.90;;;;;;5095268;28;20032;-58
2023/06/23 08:03:38;;;;;;;6.57;5.15;;;20.40;99.90;;;;;;5095202;28;20027;-58
2023/06/23 08:06:04;;;;;;;6.40;5.22;;;20.50;99.90;;;;;;5095299;28;20511;-58
2023/06/23 08:08:29;;;;;;;6.90;5.25;;;20.60;99.90;;;;;;5095451;28;20091;-58
2023/06/23 08:10:55;;;;;;;7.45;5.70;;;20.60;99.90;;;;;;5095148;28;20032;-58
2023/06/23 08:13:21;;;;;;;8.65;6.07;;;20.70;99.90;;;;;;5095244;28;20020;-58
2023/06/23 08:15:47;;;;;;;7.28;5.30;;;20.70;99.90;;;;;;5095118;28;20032;-57
2023/06/23 08:18:12;;;;;;;7.70;5.90;;;20.70;99.90;;;;;;5094689;28;20794;-58
2023/06/23 08:20:38;;;;;;;6.40;5.18;;;20.70;99.90;;;;;;5095083;28;20110;-58
2023/06/23 08:23:04;;;;;;;6.90;5.25;;;21.00;99.90;;;;;;5095209;28;20121;-58
2023/06/23 08:25:29;;;;;;;8.95;6.00;;;21.10;99.90;;;;;;5094803;28;20044;-58
2023/06/23 08:27:55;;;;;;;9.18;5.95;;;21.30;99.90;;;;;;5094606;28;20145;-58
2023/06/23 08:30:28;;;;;;;7.07;6.32;;;21.30;99.90;;;;;;5094516;28;20032;-58
2023/06/23 08:32:54;;;;;;;7.47;5.38;;;21.30;99.90;;;;;;5094730;28;20028;-58
2023/06/23 08:35:20;;;;;;;7.40;5.60;;;21.40;99.90;;;;;;5094921;28;20122;-58
2023/06/23 08:37:46;;;;;;;6.32;5.70;;;21.50;99.90;;;;;;5093260;28;20043;-59
2023/06/23 08:40:12;;;;;;;8.70;6.32;;;21.70;99.90;;;;;;5094643;28;20028;-58
2023/06/23 08:42:38;;;;;;;7.32;5.53;;;21.80;99.90;;;;;;5094401;28;20020;-57
2023/06/23 08:45:06;;;;;;;6.90;6.00;;;22.00;99.90;;;;;;5094113;28;20081;-57
2023/06/23 08:47:35;;;;;;;5.97;4.95;;;22.00;99.90;;;;;;5094339;28;20028;-58
2023/06/23 08:50:01;;;;;;;6.70;5.55;;;21.80;99.90;;;;;;5094248;28;20028;-58
2023/06/23 08:52:27;;;;;;;6.88;5.53;;;21.80;99.90;;;;;;5094275;28;20245;-58
2023/06/23 08:54:53;;;;;;;8.10;5.35;;;21.80;99.90;;;;;;5094123;28;20107;-58
2023/06/23 08:57:19;;;;;;;7.32;5.13;;;21.70;99.90;;;;;;5094467;28;20020;-58
2023/06/23 08:59:45;;;;;;;6.88;4.78;;;21.50;99.90;;;;;;5094252;28;20402;-58
2023/06/23 09:02:11;;;;;;;5.05;4.32;;;21.50;99.90;;;;;;5094174;28;20063;-57
2023/06/23 09:04:39;;;;;;;6.80;4.20;;;21.40;99.90;;;;;;5094077;28;20052;-58
2023/06/23 09:07:05;;;;;;;5.35;3.90;;;21.40;99.90;;;;;;5094374;28;20020;-58
2023/06/23 09:09:30;;;;;;;4.07;3.35;;;21.40;99.90;;;;;;5092804;28;20398;-58
2023/06/23 09:11:59;;;;;;;4.93;3.70;;;21.40;99.90;;;;;;5093989;28;20059;-58
2023/06/23 09:14:32;;;;;;;4.43;3.60;;;21.50;99.90;;;;;;5093513;28;20027;-58
2023/06/23 09:16:58;;;;;;;3.35;2.95;;;21.50;99.90;;;;;;5093687;28;20020;-58
2023/06/23 09:19:24;;;;;;;3.50;2.80;;;21.60;99.90;;;;;;5093698;28;20148;-57
2023/06/23 09:21:52;;;;;;;2.60;2.40;;;21.60;99.90;;;;;;5093396;28;20557;-57
2023/06/23 09:24:17;;;;;;;3.38;2.50;;;21.50;99.90;;;;;;5093604;28;20172;-57
2023/06/23 09:26:47;;;;;;;3.08;2.65;;;21.60;99.90;;;;;;5093411;28;20529;-58
2023/06/23 09:29:16;;;;;;;2.78;2.47;;;21.70;99.90;;;;;;5093064;28;20024;-58
2023/06/23 09:31:43;;;;;;;3.30;2.35;;;21.80;99.90;;;;;;5093648;28;20028;-58
2023/06/23 09:34:08;;;;;;;3.50;1.98;;;21.70;99.90;;;;;;5093413;28;20040;-59
2023/06/23 09:36:36;;;;;;;2.33;2.13;;;21.80;99.90;;;;;;5093615;28;20024;-57
2023/06/23 09:39:02;;;;;;;2.53;2.30;;;22.30;99.90;;;;;;5093345;28;20405;-58
2023/06/23 09:41:31;;;;;;;2.33;2.13;;;22.50;99.90;;;;;;5093302;28;20027;-58
2023/06/23 09:43:58;;;;;;;3.28;2.17;;;22.70;99.90;;;;;;5093132;28;20095;-57
2023/06/23 09:46:26;;;;;;;3.22;2.40;;;22.70;99.90;;;;;;5093586;28;20035;-57
2023/06/23 09:48:53;;;;;;;2.83;2.10;;;22.90;99.90;;;;;;5093298;28;20027;-57
2023/06/23 09:51:19;;;;;;;2.20;1.98;;;23.10;99.90;;;;;;5093026;28;20501;-56
2023/06/23 09:53:45;;;;;;;2.42;2.22;;;23.00;99.90;;;;;;5093028;28;20020;-58
2023/06/23 09:56:16;;;;;;;3.08;2.30;;;23.00;99.90;;;;;;5093160;28;20482;-58
2023/06/23 09:58:43;;;;;;;2.47;2.22;;;23.20;99.90;;;;;;5093017;28;20107;-58
2023/06/23 10:01:11;;;;;;;3.33;2.28;;;23.30;99.90;;;;;;5093013;28;20478;-57
2023/06/23 10:03:44;;;;;;;2.63;2.42;;;23.30;99.90;;;;;;5093026;28;20024;-57
2023/06/23 10:06:28;;;;;;;3.25;2.42;;;23.50;99.90;;;;;;5092887;28;20028;-58
2023/06/23 10:08:59;;;;;;;2.60;2.40;;;23.20;99.90;;;;;;5092924;28;20032;-58
2023/06/23 10:11:32;;;;;;;3.20;2.38;;;23.20;99.90;;;;;;5092449;28;20469;-58
2023/06/23 10:14:01;;;;;;;4.07;2.58;;;23.20;99.90;;;;;;5092605;28;20567;-58
2023/06/23 10:16:28;;;;;;;3.10;2.80;;;23.10;99.90;;;;;;5092607;28;20028;-58
2023/06/23 10:18:54;;;;;;;2.72;2.42;;;23.00;99.90;;;;;;5093108;28;20028;-58
2023/06/23 10:21:21;;;;;;;4.47;2.55;;;23.00;99.90;;;;;;5092041;28;20069;-59
2023/06/23 10:23:48;;;;;;;2.95;2.45;;;23.10;99.90;;;;;;5092298;28;20047;-63
2023/06/23 10:26:16;;;;;;;3.95;2.65;;;23.10;99.90;;;;;;5092441;28;20085;-58
2023/06/23 10:28:46;;;;;;;3.35;2.90;;;23.20;99.90;;;;;;5092426;28;20046;-58
2023/06/23 10:31:12;;;;;;;3.17;2.63;;;23.20;99.90;;;;;;5092336;28;20069;-58
2023/06/23 10:33:40;;;;;;;5.35;3.58;;;23.30;99.90;;;;;;5092311;28;20153;-58
2023/06/23 10:36:08;;;;;;;3.67;3.10;;;23.30;99.90;;;;;;5092441;28;20627;-59
2023/06/23 10:38:37;;;;;;;3.53;3.22;;;23.30;99.90;;;;;;5092686;28;20024;-58
2023/06/23 10:41:03;;;;;;;3.78;3.35;;;23.50;99.90;;;;;;5092132;28;20016;-58
2023/06/23 10:43:33;;;;;;;5.85;3.60;;;23.50;99.90;;;;;;5092178;28;20557;-58
2023/06/23 10:46:00;;;;;;;3.65;3.33;;;23.60;99.90;;;;;;5091939;28;20051;-58
2023/06/23 10:48:27;;;;;;;4.70;3.47;;;23.60;99.90;;;;;;5092456;28;20020;-57
2023/06/23 10:50:54;;;;;;;5.82;4.00;;;23.60;99.90;;;;;;5092043;28;20591;-58
2023/06/23 10:53:28;;;;;;;4.68;3.70;;;23.80;99.90;;;;;;5091753;28;20088;-58
2023/06/23 10:55:56;;;;;;;3.50;3.20;;;23.90;99.90;;;;;;5091647;28;20035;-57
2023/06/23 10:58:23;;;;;;;4.22;3.60;;;24.10;99.90;;;;;;5091833;28;20020;-57
2023/06/23 11:00:55;;;;;;;4.47;3.65;;;24.40;99.90;;;;;;5092173;28;20028;-58
2023/06/23 11:03:35;;;;;;;4.38;3.72;;;24.40;99.90;;;;;;5091905;28;20447;-58
2023/06/23 11:06:06;;;;;;;4.88;3.60;;;24.40;99.90;;;;;;5091626;28;20043;-58
2023/06/23 11:08:36;;;;;;;4.65;3.60;;;24.60;99.90;;;;;;5091704;28;20024;-58
2023/06/23 11:11:03;;;;;;;4.47;3.88;;;24.70;99.90;;;;;;5090122;28;20420;-58
2023/06/23 11:13:49;;;;;;;6.63;4.10;;;24.80;99.90;;;;;;5091590;28;20031;-58
2023/06/23 11:16:29;;;;;;;5.95;3.95;;;24.80;99.90;;;;;;5091525;28;20032;-58
2023/06/23 11:18:58;;;;;;;4.47;3.83;;;25.10;99.90;;;;;;5091350;28;20032;-58
2023/06/23 11:21:29;;;;;;;4.03;3.55;;;25.10;99.90;;;;;;5091640;28;20494;-58
2023/06/23 11:24:11;;;;;;;4.18;3.78;;;25.00;99.90;;;;;;5091032;28;20035;-58
2023/06/23 11:27:02;;;;;;;5.07;3.80;;;24.80;99.90;;;;;;5091361;28;20031;-58
2023/06/23 11:29:28;;;;;;;4.35;3.70;;;24.80;99.90;;;;;;5083078;28;20036;-57
2023/06/23 11:32:06;;;;;;;5.85;3.67;;;24.70;99.90;;;;;;5091005;28;20070;-58
2023/06/23 11:35:01;;;;;;;4.88;4.10;;;24.60;99.90;;;;;;5091034;28;20127;-58
2023/06/23 11:37:30;;;;;;;3.90;3.50;;;24.50;99.90;;;;;;5091609;28;20036;-58
2023/06/23 11:39:56;;;;;;;6.15;3.80;;;24.60;99.90;;;;;;5090902;28;20409;-58
2023/06/23 11:42:22;;;;;;;5.00;3.83;;;24.60;99.90;;;;;;5091677;28;20020;-58
2023/06/23 11:44:48;;;;;;;5.10;3.55;;;24.60;99.90;;;;;;5091297;28;20502;-58
2023/06/23 11:47:15;;;;;;;4.63;3.90;;;24.60;99.90;;;;;;5091171;28;20028;-58
2023/06/23 11:49:41;;;;;;;5.53;3.70;;;24.70;99.90;;;;;;5091804;28;20047;-58
2023/06/23 11:52:08;;;;;;;5.82;3.85;;;24.70;99.90;;;;;;5091343;28;20141;-58
2023/06/23 11:54:35;;;;;;;5.38;3.30;;;24.70;99.90;;;;;;5090787;28;20042;-58
2023/06/23 11:57:05;;;;;;;4.72;3.78;;;24.80;99.90;;;;;;5091314;28;20032;-58
2023/06/23 11:59:38;;;;;;;4.20;3.15;;;25.10;99.90;;;;;;5091434;28;20033;-58
2023/06/23 12:02:04;;;;;;;;;;;24.90;99.90;;;;;;5091534;28;20024;-58
2023/06/23 12:04:31;;;;;;;4.95;3.50;;;24.90;99.90;;;;;;5091102;28;20290;-57
2023/06/23 12:06:59;;;;;;;3.63;3.30;;;25.00;99.90;;;;;;5090761;28;20029;-55
2023/06/23 12:09:25;;;;;;;4.03;3.53;;;25.20;99.90;;;;;;5091021;28;20036;-58
2023/06/23 12:11:52;;;;;;;4.53;3.08;;;25.20;99.90;;;;;;5090755;28;20578;-58
2023/06/23 12:14:18;;;;;;;5.03;3.30;;;25.40;99.90;;;;;;5091006;28;20073;-56
2023/06/23 12:16:43;;;;;;;5.38;3.03;;;25.50;99.90;;;;;;5090633;28;20051;-59
2023/06/23 12:19:09;;;;;;;4.78;3.20;;;25.40;99.90;;;;;;5090788;28;20024;-58
2023/06/23 12:21:39;;;;;;;4.57;3.10;;;25.50;99.90;;;;;;5090466;28;20036;-58
2023/06/23 12:24:09;;;;;;;6.32;3.10;;;25.60;99.90;;;;;;5090828;28;20117;-57
2023/06/23 12:26:42;;;;;;;4.78;3.10;;;25.70;99.90;;;;;;5091163;28;20028;-58
2023/06/23 12:29:09;;;;;;;3.38;3.08;;;25.50;99.90;;;;;;5090831;28;20035;-58
2023/06/23 12:31:37;;;;;;;4.47;3.35;;;25.50;99.90;;;;;;5090794;28;20090;-58
2023/06/23 12:34:03;;;;;;;3.45;3.13;;;25.60;99.90;;;;;;5090653;28;20528;-58
2023/06/23 12:36:29;;;;;;;5.95;3.08;;;25.70;99.90;;;;;;5090360;28;20032;-57
2023/06/23 12:38:55;;;;;;;4.18;3.10;;;25.50;99.90;;;;;;5090772;28;20027;-58
2023/06/23 12:41:26;;;;;;;5.65;3.08;;;25.70;99.90;;;;;;5090663;28;20036;-58
2023/06/23 12:43:58;;;;;;;3.72;3.00;;;25.90;99.90;;;;;;5091943;28;20102;-58
2023/06/23 12:46:27;;;;;;;3.20;2.67;;;25.60;99.90;;;;;;5094447;28;20020;-58
2023/06/23 12:48:54;;;;;;;3.47;2.75;;;25.40;99.90;;;;;;5094307;28;20118;-58
2023/06/23 12:51:36;;;;;;;2.95;2.65;;;25.40;99.90;;;;;;5093953;28;20103;-58
2023/06/23 12:54:03;;;;;;;4.45;3.00;;;25.50;99.90;;;;;;5094523;28;20032;-58